Weather forecasts are calculated to a 100 metre elevation grid, providing ultimate accuracy for high elevation routes. See the “severe weather” column for any noteworthy conditions.
For use of the snow symbols: HWC = high water content (wet snow). MWC = moderate water content. NWC = low water content (powder type). Confidence of snow accumulation is increased during incidence of NWC.


Time. Apparent Temperature Rain Cloud Dir Avg. Wind Gust. Wind Snow Accum. Chance of settle. Freezing height(beta) Dew Point Severe Weather
Thu 08th 11:00 15.9°C 0.0 mm 66% 11 mph 17 mph 0.00 cm % 2,117m 11.1°C
12:00 16.0°C 0.0 mm 67% 11 mph 17 mph 0.00 cm % 2,127m 10.8°C
13:00 16.1°C 0.0 mm 73% 11 mph 16 mph 0.00 cm % 2,148m 10.3°C
14:00 16.5°C 0.0 mm 69% 11 mph 16 mph 0.00 cm % 1,651m 9.5°C
15:00 16.9°C 0.0 mm 70% 13 mph 19 mph 0.00 cm % 1,686m 9.3°C
16:00 16.5°C 0.0 mm 65% 13 mph 19 mph 0.00 cm % 1,651m 9.3°C
17:00 16.1°C 0.0 mm 63% 12 mph 18 mph 0.00 cm % 1,606m 9.5°C
18:00 15.7°C 0.0 mm 63% 10 mph 15 mph 0.00 cm % 2,090m 10.9°C
19:00 14.4°C 0.0 mm 74% 8 mph 13 mph 0.00 cm % 2,400m 11.0°C
20:00 12.5°C 0.0 mm 69% 6 mph 9 mph 0.00 cm % 2,506m 10.7°C
21:00 11.1°C mist/fog in vicinity 0.0 mm 68% 5 mph 7 mph 0.00 cm % 2,218m 9.7°C poor vis, mist
22:00 10.6°C mist/fog in vicinity 0.0 mm 69% 5 mph 7 mph 0.00 cm % 2,112m 9.6°C poor vis, mist
23:00 10.2°C mist/fog 0.0 mm 63% 4 mph 6 mph 0.00 cm % 2,034m 9.4°C poor vis, mist
Fri 09th 00:00 9.9°C mist/fog 0.0 mm 57% 4 mph 6 mph 0.00 cm % 1,980m 9.3°C poor vis, mist
01:00 9.7°C mist/fog 0.0 mm 73% 4 mph 6 mph 0.00 cm % 1,936m 9.1°C poor vis, mist
02:00 9.7°C mist/fog 0.0 mm 81% 4 mph 6 mph 0.00 cm % 1,946m 9.3°C poor vis, mist
03:00 9.6°C mist/fog 0.0 mm 81% 4 mph 6 mph 0.00 cm % 1,914m 9.2°C poor vis, mist
04:00 9.3°C mist/fog 0.0 mm 78% 4 mph 5 mph 0.00 cm % 1,862m 8.7°C poor vis, mist
05:00 10.2°C mist/fog 0.0 mm 76% 3 mph 5 mph 0.00 cm % 2,040m 9.4°C poor vis, mist
06:00 11.9°C mist/fog in vicinity 0.0 mm 74% 4 mph 5 mph 0.00 cm % 2,378m 10.3°C poor vis, mist
07:00 13.3°C 0.0 mm 52% 4 mph 5 mph 0.00 cm % 2,217m 10.7°C
08:00 14.5°C 0.0 mm 50% 3 mph 5 mph 0.00 cm % 2,415m 10.7°C
09:00 15.2°C 0.0 mm 64% 3 mph 5 mph 0.00 cm % 2,023m 10.8°C
10:00 15.0°C 0.0 mm 72% 4 mph 6 mph 0.00 cm % 1,997m 10.8°C
11:00 15.3°C 0.0 mm 78% 5 mph 7 mph 0.00 cm % 2,040m 10.9°C
12:00 16.4°C 0.0 mm 81% 6 mph 8 mph 0.00 cm % 2,181m 10.8°C
13:00 17.3°C 0.0 mm 84% 7 mph 11 mph 0.00 cm % 1,734m 10.7°C
14:00 17.7°C 0.0 mm 86% 8 mph 12 mph 0.00 cm % 1,769m 10.7°C
15:00 17.7°C 0.0 mm 89% 8 mph 11 mph 0.00 cm % 1,770m 10.9°C
16:00 17.7°C 0.0 mm 89% 6 mph 9 mph 0.00 cm % 1,765m 10.9°C
17:00 17.4°C 0.0 mm 90% 5 mph 8 mph 0.00 cm % 1,742m 10.8°C
18:00 16.8°C 0.0 mm 91% 6 mph 10 mph 0.00 cm % 2,240m 12.4°C
19:00 15.3°C rainfall in vicinity 0.1 mm 100% 6 mph 8 mph 0.00 cm % 2,556m 12.7°C
20:00 13.6°C mist/fog in vicinity 0.0 mm 100% 4 mph 6 mph 0.00 cm % 2,728m 11.8°C poor vis, mist
21:00 12.7°C mist/fog in vicinity 0.0 mm 100% 3 mph 5 mph 0.00 cm % 2,546m 11.1°C poor vis, mist
22:00 12.3°C mist/fog in vicinity 0.0 mm 100% 3 mph 5 mph 0.00 cm % 2,468m 10.9°C poor vis, mist
23:00 12.2°C mist/fog in vicinity 0.0 mm 100% 3 mph 5 mph 0.00 cm % 2,436m 11.0°C poor vis, mist
Sat 10th 00:00 12.1°C mist/fog in vicinity 0.0 mm 100% 4 mph 6 mph 0.00 cm % 2,414m 11.1°C poor vis, mist
01:00 11.9°C mist/fog in vicinity 0.0 mm 100% 3 mph 5 mph 0.00 cm % 2,388m 10.9°C poor vis, mist
02:00 11.4°C rainfall in vicinity 0.2 mm 100% 3 mph 5 mph 0.00 cm % 2,286m 10.6°C
03:00 11.2°C rainfall in vicinity 0.2 mm 100% 3 mph 5 mph 0.00 cm % 2,234m 10.6°C
04:00 11.0°C light rain 0.3 mm 100% 2 mph 3 mph 0.00 cm % 2,198m 10.6°C
05:00 11.5°C light rain 0.4 mm 100% 3 mph 5 mph 0.00 cm % 2,306m 11.1°C
06:00 12.2°C light rain 0.6 mm 100% 3 mph 5 mph 0.00 cm % 2,442m 11.4°C
07:00 12.9°C mist/fog 0.0 mm 100% 2 mph 3 mph 0.00 cm % 2,580m 11.7°C poor vis, mist
08:00 13.6°C rainfall in vicinity 0.3 mm 100% 2 mph 3 mph 0.00 cm % 2,722m 11.8°C
09:00 14.0°C light rain 0.9 mm 100% 1 mph 2 mph 0.00 cm % 2,792m 12.0°C
10:00 14.2°C moderate rain 1.7 mm 100% 1 mph 1 mph 0.00 cm % 2,373m 12.0°C
11:00 14.5°C moderate rain 1.8 mm 100% 1 mph 1 mph 0.00 cm % 2,419m 12.3°C
12:00 14.7°C moderate rain 1.5 mm 100% 1 mph 1 mph 0.00 cm % 2,450m 12.5°C
13:00 15.2°C moderate rain 1.4 mm 100% 1 mph 1 mph 0.00 cm % 2,537m 12.4°C
14:00 16.0°C moderate rain 1.4 mm 100% 3 mph 5 mph 0.00 cm % 2,663m 12.8°C
15:00 16.3°C moderate rain 1.4 mm 100% 5 mph 7 mph 0.00 cm % 2,719m 12.7°C
16:00 16.6°C moderate rain 1.6 mm 99% 7 mph 10 mph 0.00 cm % 2,760m 13.0°C
17:00 16.4°C light rain 1.1 mm 97% 8 mph 12 mph 0.00 cm % 2,735m 12.8°C
18:00 16.1°C light rain 0.6 mm 93% 9 mph 13 mph 0.00 cm % 2,681m 13.3°C
19:00 15.1°C light rain 0.4 mm 63% 9 mph 13 mph 0.00 cm % 3,014m 13.1°C
20:00 13.6°C light rain 0.5 mm 73% 7 mph 10 mph 0.00 cm % 2,724m 12.4°C
21:00 13.2°C rainfall in vicinity 0.1 mm 80% 5 mph 7 mph 0.00 cm % 2,646m 12.2°C
22:00 12.8°C rainfall in vicinity 0.2 mm 85% 5 mph 7 mph 0.00 cm % 2,562m 12.0°C
23:00 12.5°C mist/fog 0.0 mm 88% 5 mph 7 mph 0.00 cm % 2,492m 11.7°C poor vis, mist
Sun 11th 00:00 12.2°C mist/fog 0.0 mm 90% 4 mph 5 mph 0.00 cm % 2,434m 11.4°C poor vis, mist
01:00 11.8°C mist/fog in vicinity 0.0 mm 100% 4 mph 6 mph 0.00 cm % 2,364m 10.8°C poor vis, mist
02:00 11.6°C mist/fog in vicinity 0.0 mm 97% 4 mph 6 mph 0.00 cm % 2,314m 10.6°C poor vis, mist
03:00 11.1°C mist/fog 0.0 mm 96% 2 mph 3 mph 0.00 cm % 2,224m 10.1°C poor vis, mist
04:00 10.2°C mist/fog 0.0 mm 94% 3 mph 4 mph 0.00 cm % 2,048m 9.0°C poor vis, mist
05:00 10.7°C mist/fog in vicinity 0.0 mm 95% 3 mph 5 mph 0.00 cm % 2,142m 9.5°C poor vis, mist
06:00 12.0°C mist/fog in vicinity 0.0 mm 95% 2 mph 3 mph 0.00 cm % 2,396m 10.0°C poor vis, mist
07:00 13.3°C 0.0 mm 69% 3 mph 5 mph 0.00 cm % 2,212m 10.5°C
08:00 14.3°C 0.0 mm 84% 6 mph 9 mph 0.00 cm % 2,375m 11.1°C
09:00 15.1°C 0.0 mm 90% 8 mph 12 mph 0.00 cm % 2,508m 11.1°C
10:00 15.9°C 0.0 mm 92% 9 mph 14 mph 0.00 cm % 2,123m 11.1°C
11:00 16.5°C 0.0 mm 94% 12 mph 17 mph 0.00 cm % 2,196m 11.1°C
12:00 16.4°C 0.0 mm 95% 12 mph 19 mph 0.00 cm % 2,190m 11.2°C
13:00 16.5°C rainfall in vicinity 0.2 mm 100% 13 mph 19 mph 0.00 cm % 2,205m 11.5°C
14:00 16.9°C rainfall in vicinity 0.2 mm 100% 13 mph 19 mph 0.00 cm % 2,256m 11.5°C
15:00 16.5°C rainfall in vicinity 0.1 mm 100% 12 mph 19 mph 0.00 cm % 2,196m 11.7°C
16:00 16.4°C rainfall in vicinity 0.1 mm 100% 13 mph 19 mph 0.00 cm % 2,180m 11.6°C
17:00 16.2°C 0.0 mm 100% 12 mph 18 mph 0.00 cm % 2,156m 11.0°C
18:00 15.7°C 0.0 mm 100% 9 mph 13 mph 0.00 cm % 2,097m 11.5°C
19:00 14.4°C light rain 0.3 mm 100% 9 mph 13 mph 0.00 cm % 2,402m 11.6°C
20:00 13.2°C 0.0 mm 100% 7 mph 11 mph 0.00 cm % 2,634m 11.4°C
21:00 11.9°C 0.0 mm 100% 6 mph 9 mph 0.00 cm % 2,376m 10.9°C
22:00 11.5°C mist/fog in vicinity 0.0 mm 100% 6 mph 8 mph 0.00 cm % 2,290m 10.7°C poor vis, mist
23:00 11.7°C rainfall in vicinity 0.1 mm 100% 5 mph 8 mph 0.00 cm % 2,330m 11.1°C
Mon 12th 00:00 11.6°C rainfall in vicinity 0.2 mm 100% 5 mph 7 mph 0.00 cm % 2,310m 11.2°C
01:00 11.5°C light rain 0.6 mm 100% 3 mph 5 mph 0.00 cm % 2,302m 11.3°C
02:00 11.6°C light rain 0.8 mm 100% 3 mph 4 mph 0.00 cm % 2,314m 11.4°C
03:00 11.7°C rainfall in vicinity 0.3 mm 100% 2 mph 3 mph 0.00 cm % 2,332m 11.5°C
04:00 11.7°C rainfall in vicinity 0.1 mm 100% 2 mph 3 mph 0.00 cm % 2,332m 11.5°C
05:00 11.8°C rainfall in vicinity 0.2 mm 100% 3 mph 4 mph 0.00 cm % 2,366m 11.6°C
06:00 12.0°C light rain 0.3 mm 100% 3 mph 4 mph 0.00 cm % 2,398m 11.8°C
07:00 12.2°C light rain 0.5 mm 100% 4 mph 5 mph 0.00 cm % 2,430m 11.8°C
08:00 12.2°C light rain 0.5 mm 100% 5 mph 7 mph 0.00 cm % 2,434m 11.8°C
09:00 12.5°C light rain 0.7 mm 100% 5 mph 8 mph 0.00 cm % 2,490m 11.7°C
10:00 13.3°C light rain 0.6 mm 100% 5 mph 8 mph 0.00 cm % 2,656m 11.9°C